sensor_id;sensor_type;location;lat;lon;timestamp;pressure;altitude;pressure_sealevel;temperature;humidity
27210;BME280;14721;42.668;23.386;2022-10-17T00:01:08;96598.63;;;8.28;85.35
27210;BME280;14721;42.668;23.386;2022-10-17T00:03:35;96606.81;;;8.24;85.32
27210;BME280;14721;42.668;23.386;2022-10-17T00:06:09;96603.97;;;8.28;85.07
27210;BME280;14721;42.668;23.386;2022-10-17T00:08:37;96605.59;;;8.11;85.99
27210;BME280;14721;42.668;23.386;2022-10-17T00:11:14;96600.34;;;8.09;86.59
27210;BME280;14721;42.668;23.386;2022-10-17T00:13:40;96581.53;;;7.94;86.93
27210;BME280;14721;42.668;23.386;2022-10-17T00:16:06;96601.63;;;8.01;87.15
27210;BME280;14721;42.668;23.386;2022-10-17T00:18:32;96597.81;;;8.06;86.56
27210;BME280;14721;42.668;23.386;2022-10-17T00:20:58;96602.44;;;8.03;87.05
27210;BME280;14721;42.668;23.386;2022-10-17T00:23:23;96608.84;;;7.97;87.39
27210;BME280;14721;42.668;23.386;2022-10-17T00:26:03;96614.19;;;7.97;87.13
27210;BME280;14721;42.668;23.386;2022-10-17T00:28:30;96612.25;;;8.01;87.52
27210;BME280;14721;42.668;23.386;2022-10-17T00:31:01;96610.53;;;8.00;86.73
27210;BME280;14721;42.668;23.386;2022-10-17T00:33:28;96605.03;;;8.04;86.56
27210;BME280;14721;42.668;23.386;2022-10-17T00:36:06;96602.34;;;8.04;86.53
27210;BME280;14721;42.668;23.386;2022-10-17T00:38:33;96610.00;;;8.12;85.32
27210;BME280;14721;42.668;23.386;2022-10-17T00:40:59;96618.69;;;8.15;85.24
27210;BME280;14721;42.668;23.386;2022-10-17T00:43:25;96610.34;;;8.04;85.56
27210;BME280;14721;42.668;23.386;2022-10-17T00:45:51;96594.38;;;7.84;86.04
27210;BME280;14721;42.668;23.386;2022-10-17T00:48:18;96618.88;;;7.92;86.35
27210;BME280;14721;42.668;23.386;2022-10-17T00:50:46;96619.06;;;7.88;86.74
27210;BME280;14721;42.668;23.386;2022-10-17T00:53:13;96619.56;;;7.96;86.10
27210;BME280;14721;42.668;23.386;2022-10-17T00:55:48;96612.34;;;7.99;85.90
27210;BME280;14721;42.668;23.386;2022-10-17T00:58:15;96621.91;;;8.03;84.84
27210;BME280;14721;42.668;23.386;2022-10-17T01:00:42;96613.97;;;8.02;84.56
27210;BME280;14721;42.668;23.386;2022-10-17T01:03:09;96618.72;;;7.95;85.02
27210;BME280;14721;42.668;23.386;2022-10-17T01:05:34;96618.13;;;7.89;85.47
27210;BME280;14721;42.668;23.386;2022-10-17T01:08:01;96622.06;;;7.80;85.81
27210;BME280;14721;42.668;23.386;2022-10-17T01:10:44;96616.28;;;7.91;85.47
27210;BME280;14721;42.668;23.386;2022-10-17T01:15:56;96618.84;;;7.72;86.74
27210;BME280;14721;42.668;23.386;2022-10-17T01:18:40;96614.28;;;7.76;86.59
27210;BME280;14721;42.668;23.386;2022-10-17T01:21:32;96612.88;;;7.67;86.70
27210;BME280;14721;42.668;23.386;2022-10-17T01:24:15;96611.88;;;7.69;86.74
27210;BME280;14721;42.668;23.386;2022-10-17T01:33:11;96620.75;;;7.48;87.10
27210;BME280;14721;42.668;23.386;2022-10-17T01:35:47;96623.09;;;7.34;87.81
27210;BME280;14721;42.668;23.386;2022-10-17T01:38:23;96625.13;;;7.29;88.46
27210;BME280;14721;42.668;23.386;2022-10-17T01:41:00;96620.69;;;7.28;88.76
27210;BME280;14721;42.668;23.386;2022-10-17T01:43:40;96621.69;;;7.26;89.10
27210;BME280;14721;42.668;23.386;2022-10-17T01:46:19;96612.06;;;7.23;89.06
27210;BME280;14721;42.668;23.386;2022-10-17T01:48:46;96628.56;;;7.31;89.08
27210;BME280;14721;42.668;23.386;2022-10-17T01:51:23;96626.44;;;7.39;88.86
27210;BME280;14721;42.668;23.386;2022-10-17T01:54:05;96630.25;;;7.34;88.68
27210;BME280;14721;42.668;23.386;2022-10-17T01:56:34;96622.56;;;7.26;88.94
27210;BME280;14721;42.668;23.386;2022-10-17T01:59:15;96621.50;;;7.30;88.32
27210;BME280;14721;42.668;23.386;2022-10-17T02:01:43;96633.44;;;7.42;87.91
27210;BME280;14721;42.668;23.386;2022-10-17T02:04:10;96636.22;;;7.39;88.14
27210;BME280;14721;42.668;23.386;2022-10-17T02:06:36;96625.81;;;7.33;88.76
27210;BME280;14721;42.668;23.386;2022-10-17T02:09:24;96638.63;;;7.45;87.68
27210;BME280;14721;42.668;23.386;2022-10-17T02:25:06;96640.63;;;7.40;88.55
27210;BME280;14721;42.668;23.386;2022-10-17T02:27:49;96634.50;;;7.38;88.37
27210;BME280;14721;42.668;23.386;2022-10-17T02:30:35;96651.50;;;7.34;88.37
27210;BME280;14721;42.668;23.386;2022-10-17T02:36:27;96651.06;;;7.23;89.33
27210;BME280;14721;42.668;23.386;2022-10-17T02:38:55;96657.63;;;7.14;89.50
27210;BME280;14721;42.668;23.386;2022-10-17T02:41:23;96655.03;;;7.13;89.48
27210;BME280;14721;42.668;23.386;2022-10-17T02:43:50;96655.75;;;7.16;89.32
27210;BME280;14721;42.668;23.386;2022-10-17T02:46:18;96665.28;;;7.00;89.47
27210;BME280;14721;42.668;23.386;2022-10-17T02:48:49;96665.50;;;6.94;89.77
27210;BME280;14721;42.668;23.386;2022-10-17T02:53:54;96668.53;;;6.85;89.76
27210;BME280;14721;42.668;23.386;2022-10-17T02:56:24;96666.34;;;6.73;90.92
27210;BME280;14721;42.668;23.386;2022-10-17T02:58:56;96672.28;;;6.80;90.47
27210;BME280;14721;42.668;23.386;2022-10-17T03:01:24;96676.09;;;6.73;90.85
27210;BME280;14721;42.668;23.386;2022-10-17T03:03:50;96678.91;;;6.68;90.54
27210;BME280;14721;42.668;23.386;2022-10-17T03:06:15;96670.78;;;6.50;91.29
27210;BME280;14721;42.668;23.386;2022-10-17T03:08:41;96677.81;;;6.51;91.60
27210;BME280;14721;42.668;23.386;2022-10-17T03:11:07;96683.91;;;6.54;91.32
27210;BME280;14721;42.668;23.386;2022-10-17T03:13:33;96673.03;;;6.37;91.42
27210;BME280;14721;42.668;23.386;2022-10-17T03:15:58;96692.75;;;6.53;91.26
27210;BME280;14721;42.668;23.386;2022-10-17T03:18:24;96691.09;;;6.51;91.21
27210;BME280;14721;42.668;23.386;2022-10-17T03:20:50;96693.59;;;6.55;91.02
27210;BME280;14721;42.668;23.386;2022-10-17T03:23:15;96680.94;;;6.39;91.24
27210;BME280;14721;42.668;23.386;2022-10-17T03:25:41;96699.13;;;6.25;91.72
27210;BME280;14721;42.668;23.386;2022-10-17T03:28:08;96694.88;;;6.21;91.81
27210;BME280;14721;42.668;23.386;2022-10-17T03:30:34;96693.13;;;6.20;92.33
27210;BME280;14721;42.668;23.386;2022-10-17T03:33:02;96689.56;;;6.21;92.28
27210;BME280;14721;42.668;23.386;2022-10-17T03:35:28;96696.47;;;6.25;92.26
27210;BME280;14721;42.668;23.386;2022-10-17T03:37:54;96692.41;;;6.15;92.19
27210;BME280;14721;42.668;23.386;2022-10-17T03:40:20;96699.81;;;6.05;92.35
27210;BME280;14721;42.668;23.386;2022-10-17T03:42:45;96696.34;;;6.05;93.11
27210;BME280;14721;42.668;23.386;2022-10-17T03:45:11;96698.44;;;5.95;92.99
27210;BME280;14721;42.668;23.386;2022-10-17T03:47:36;96694.06;;;5.94;92.63
27210;BME280;14721;42.668;23.386;2022-10-17T03:50:03;96710.88;;;5.93;93.17
27210;BME280;14721;42.668;23.386;2022-10-17T03:52:29;96703.78;;;5.94;92.94
27210;BME280;14721;42.668;23.386;2022-10-17T03:54:55;96714.34;;;5.95;92.95
27210;BME280;14721;42.668;23.386;2022-10-17T03:57:21;96715.22;;;5.96;93.31
27210;BME280;14721;42.668;23.386;2022-10-17T03:59:49;96714.03;;;6.04;92.75
27210;BME280;14721;42.668;23.386;2022-10-17T04:02:16;96709.81;;;5.99;93.02
27210;BME280;14721;42.668;23.386;2022-10-17T04:04:43;96702.16;;;5.90;93.00
27210;BME280;14721;42.668;23.386;2022-10-17T04:07:08;96712.88;;;5.87;93.28
27210;BME280;14721;42.668;23.386;2022-10-17T04:09:34;96714.00;;;5.78;94.26
27210;BME280;14721;42.668;23.386;2022-10-17T04:12:00;96715.09;;;5.72;94.16
27210;BME280;14721;42.668;23.386;2022-10-17T04:14:30;96716.66;;;5.78;94.09
27210;BME280;14721;42.668;23.386;2022-10-17T04:16:56;96720.41;;;5.72;93.84
27210;BME280;14721;42.668;23.386;2022-10-17T04:19:21;96718.41;;;5.79;93.96
27210;BME280;14721;42.668;23.386;2022-10-17T04:21:47;96721.28;;;5.73;93.64
27210;BME280;14721;42.668;23.386;2022-10-17T04:24:12;96713.53;;;5.67;94.15
27210;BME280;14721;42.668;23.386;2022-10-17T04:26:38;96727.94;;;5.58;94.46
27210;BME280;14721;42.668;23.386;2022-10-17T04:29:04;96732.22;;;5.62;94.92
27210;BME280;14721;42.668;23.386;2022-10-17T04:31:30;96724.38;;;5.59;95.04
27210;BME280;14721;42.668;23.386;2022-10-17T04:33:56;96725.94;;;5.65;94.64
27210;BME280;14721;42.668;23.386;2022-10-17T04:36:22;96730.63;;;5.57;94.80
27210;BME280;14721;42.668;23.386;2022-10-17T04:38:47;96712.06;;;5.57;95.30
27210;BME280;14721;42.668;23.386;2022-10-17T04:41:16;96731.25;;;5.65;95.01
27210;BME280;14721;42.668;23.386;2022-10-17T04:43:43;96718.44;;;5.51;95.10
27210;BME280;14721;42.668;23.386;2022-10-17T04:46:12;96732.47;;;5.55;95.73
27210;BME280;14721;42.668;23.386;2022-10-17T04:48:39;96731.97;;;5.70;95.39
27210;BME280;14721;42.668;23.386;2022-10-17T04:51:07;96732.09;;;5.67;95.91
27210;BME280;14721;42.668;23.386;2022-10-17T04:53:35;96724.72;;;5.75;96.06
27210;BME280;14721;42.668;23.386;2022-10-17T04:56:08;96737.28;;;5.96;95.43
27210;BME280;14721;42.668;23.386;2022-10-17T04:58:34;96736.34;;;6.23;95.51
27210;BME280;14721;42.668;23.386;2022-10-17T05:01:03;96731.75;;;6.28;95.22
27210;BME280;14721;42.668;23.386;2022-10-17T05:03:33;96743.59;;;6.43;94.79
27210;BME280;14721;42.668;23.386;2022-10-17T05:06:04;96740.34;;;6.59;93.96
27210;BME280;14721;42.668;23.386;2022-10-17T05:08:31;96741.41;;;6.78;92.43
27210;BME280;14721;42.668;23.386;2022-10-17T05:10:56;96746.16;;;6.93;90.95
27210;BME280;14721;42.668;23.386;2022-10-17T05:13:22;96743.09;;;7.04;89.46
27210;BME280;14721;42.668;23.386;2022-10-17T05:15:48;96752.09;;;7.00;88.73
27210;BME280;14721;42.668;23.386;2022-10-17T05:18:13;96753.38;;;7.13;87.09
27210;BME280;14721;42.668;23.386;2022-10-17T05:20:38;96751.91;;;7.27;86.05
27210;BME280;14721;42.668;23.386;2022-10-17T05:23:04;96743.69;;;7.33;85.42
27210;BME280;14721;42.668;23.386;2022-10-17T05:25:30;96766.72;;;7.78;84.52
27210;BME280;14721;42.668;23.386;2022-10-17T05:27:55;96746.28;;;8.20;83.78
27210;BME280;14721;42.668;23.386;2022-10-17T05:30:21;96758.31;;;8.90;80.77
27210;BME280;14721;42.668;23.386;2022-10-17T05:32:46;96746.81;;;9.45;77.22
27210;BME280;14721;42.668;23.386;2022-10-17T05:35:11;96761.47;;;10.09;74.25
27210;BME280;14721;42.668;23.386;2022-10-17T05:37:37;96760.94;;;10.88;70.85
27210;BME280;14721;42.668;23.386;2022-10-17T05:40:03;96759.25;;;11.68;67.17
27210;BME280;14721;42.668;23.386;2022-10-17T05:42:28;96758.78;;;12.22;63.97
27210;BME280;14721;42.668;23.386;2022-10-17T05:44:54;96760.38;;;12.69;61.75
27210;BME280;14721;42.668;23.386;2022-10-17T05:47:22;96771.16;;;13.13;59.81
27210;BME280;14721;42.668;23.386;2022-10-17T05:49:48;96748.13;;;13.51;57.72
27210;BME280;14721;42.668;23.386;2022-10-17T05:52:14;96769.22;;;14.12;56.21
27210;BME280;14721;42.668;23.386;2022-10-17T05:54:39;96763.28;;;14.07;55.60
27210;BME280;14721;42.668;23.386;2022-10-17T05:57:04;96768.34;;;14.52;54.34
27210;BME280;14721;42.668;23.386;2022-10-17T05:59:30;96781.53;;;14.69;53.59
27210;BME280;14721;42.668;23.386;2022-10-17T06:01:55;96785.59;;;15.01;52.06
27210;BME280;14721;42.668;23.386;2022-10-17T06:04:21;96783.91;;;15.25;50.98
27210;BME280;14721;42.668;23.386;2022-10-17T06:06:46;96781.19;;;15.13;50.58
27210;BME280;14721;42.668;23.386;2022-10-17T06:09:12;96783.81;;;15.27;50.54
27210;BME280;14721;42.668;23.386;2022-10-17T06:11:37;96766.00;;;14.99;50.23
27210;BME280;14721;42.668;23.386;2022-10-17T06:14:03;96787.47;;;15.76;48.97
27210;BME280;14721;42.668;23.386;2022-10-17T06:16:28;96788.31;;;15.76;48.83
27210;BME280;14721;42.668;23.386;2022-10-17T06:18:54;96787.03;;;15.82;48.88
27210;BME280;14721;42.668;23.386;2022-10-17T06:21:23;96774.53;;;16.17;47.55
27210;BME280;14721;42.668;23.386;2022-10-17T06:23:49;96800.47;;;16.55;46.74
27210;BME280;14721;42.668;23.386;2022-10-17T06:26:15;96801.22;;;16.92;45.98
27210;BME280;14721;42.668;23.386;2022-10-17T06:28:41;96777.56;;;16.96;45.16
27210;BME280;14721;42.668;23.386;2022-10-17T06:31:11;96810.72;;;16.74;45.78
27210;BME280;14721;42.668;23.386;2022-10-17T06:33:37;96807.19;;;16.73;46.56
27210;BME280;14721;42.668;23.386;2022-10-17T06:36:04;96804.22;;;17.00;45.99
27210;BME280;14721;42.668;23.386;2022-10-17T06:38:30;96812.56;;;16.97;46.54
27210;BME280;14721;42.668;23.386;2022-10-17T06:41:07;96802.94;;;17.17;46.07
27210;BME280;14721;42.668;23.386;2022-10-17T06:43:36;96814.09;;;17.12;45.70
27210;BME280;14721;42.668;23.386;2022-10-17T06:46:03;96800.63;;;17.34;45.32
27210;BME280;14721;42.668;23.386;2022-10-17T06:48:29;96807.63;;;17.82;44.38
27210;BME280;14721;42.668;23.386;2022-10-17T06:51:01;96807.63;;;17.82;44.38
27210;BME280;14721;42.668;23.386;2022-10-17T06:53:28;96809.25;;;17.96;44.26
27210;BME280;14721;42.668;23.386;2022-10-17T06:55:54;96800.34;;;18.27;43.28
27210;BME280;14721;42.668;23.386;2022-10-17T06:58:22;96819.19;;;18.28;42.97
27210;BME280;14721;42.668;23.386;2022-10-17T07:00:48;96809.59;;;18.24;43.28
27210;BME280;14721;42.668;23.386;2022-10-17T07:03:13;96787.97;;;18.02;43.34
27210;BME280;14721;42.668;23.386;2022-10-17T07:05:39;96796.19;;;18.23;43.44
27210;BME280;14721;42.668;23.386;2022-10-17T07:08:04;96782.06;;;18.41;42.83
27210;BME280;14721;42.668;23.386;2022-10-17T07:10:30;96805.47;;;18.85;42.15
27210;BME280;14721;42.668;23.386;2022-10-17T07:12:55;96795.53;;;19.06;41.28
27210;BME280;14721;42.668;23.386;2022-10-17T07:15:21;96808.41;;;19.14;41.29
27210;BME280;14721;42.668;23.386;2022-10-17T07:17:49;96810.22;;;19.24;41.42
27210;BME280;14721;42.668;23.386;2022-10-17T07:20:15;96804.19;;;19.52;40.95
27210;BME280;14721;42.668;23.386;2022-10-17T07:22:40;96801.44;;;19.93;40.03
27210;BME280;14721;42.668;23.386;2022-10-17T07:25:07;96805.78;;;20.05;39.56
27210;BME280;14721;42.668;23.386;2022-10-17T07:27:32;96812.75;;;20.28;39.04
27210;BME280;14721;42.668;23.386;2022-10-17T07:29:59;96806.50;;;20.07;39.05
27210;BME280;14721;42.668;23.386;2022-10-17T07:32:24;96805.75;;;20.26;39.48
27210;BME280;14721;42.668;23.386;2022-10-17T07:34:49;96801.19;;;20.85;38.61
27210;BME280;14721;42.668;23.386;2022-10-17T07:37:15;96810.28;;;20.95;38.19
27210;BME280;14721;42.668;23.386;2022-10-17T07:39:40;96806.84;;;21.03;37.88
27210;BME280;14721;42.668;23.386;2022-10-17T07:42:06;96810.28;;;21.43;37.34
27210;BME280;14721;42.668;23.386;2022-10-17T07:44:32;96786.22;;;21.76;36.54
27210;BME280;14721;42.668;23.386;2022-10-17T07:46:57;96792.19;;;21.89;36.42
27210;BME280;14721;42.668;23.386;2022-10-17T07:49:23;96798.31;;;22.01;36.46
27210;BME280;14721;42.668;23.386;2022-10-17T07:51:48;96804.84;;;21.81;36.29
27210;BME280;14721;42.668;23.386;2022-10-17T07:54:14;96814.28;;;21.77;35.98
27210;BME280;14721;42.668;23.386;2022-10-17T07:56:39;96800.19;;;22.00;35.67
27210;BME280;14721;42.668;23.386;2022-10-17T07:59:05;96804.66;;;21.73;36.50
27210;BME280;14721;42.668;23.386;2022-10-17T08:01:30;96798.34;;;20.87;37.48
27210;BME280;14721;42.668;23.386;2022-10-17T08:03:55;96798.53;;;20.45;38.58
27210;BME280;14721;42.668;23.386;2022-10-17T08:06:21;96795.22;;;20.42;38.70
27210;BME280;14721;42.668;23.386;2022-10-17T08:08:46;96805.97;;;20.13;39.39
27210;BME280;14721;42.668;23.386;2022-10-17T08:11:13;96802.06;;;19.56;39.99
27210;BME280;14721;42.668;23.386;2022-10-17T08:13:39;96804.88;;;18.70;40.84
27210;BME280;14721;42.668;23.386;2022-10-17T08:16:08;96799.28;;;18.40;42.40
27210;BME280;14721;42.668;23.386;2022-10-17T08:18:34;96784.88;;;18.29;43.00
27210;BME280;14721;42.668;23.386;2022-10-17T08:21:02;96787.69;;;18.16;43.58
27210;BME280;14721;42.668;23.386;2022-10-17T08:23:30;96786.50;;;17.87;44.40
27210;BME280;14721;42.668;23.386;2022-10-17T08:25:58;96791.78;;;17.67;44.06
27210;BME280;14721;42.668;23.386;2022-10-17T08:28:24;96796.47;;;17.30;44.82
27210;BME280;14721;42.668;23.386;2022-10-17T08:30:49;96789.66;;;17.14;45.31
27210;BME280;14721;42.668;23.386;2022-10-17T08:33:15;96790.50;;;17.03;45.42
27210;BME280;14721;42.668;23.386;2022-10-17T08:35:40;96793.03;;;16.93;45.12
27210;BME280;14721;42.668;23.386;2022-10-17T08:38:06;96791.94;;;16.96;46.47
27210;BME280;14721;42.668;23.386;2022-10-17T08:40:32;96794.06;;;16.80;46.62
27210;BME280;14721;42.668;23.386;2022-10-17T08:48:03;96789.78;;;16.41;47.30
27210;BME280;14721;42.668;23.386;2022-10-17T08:50:36;96792.38;;;16.43;47.96
27210;BME280;14721;42.668;23.386;2022-10-17T08:55:48;96789.81;;;15.93;48.41
27210;BME280;14721;42.668;23.386;2022-10-17T08:58:21;96801.63;;;16.15;47.76
27210;BME280;14721;42.668;23.386;2022-10-17T09:01:35;96808.69;;;16.29;46.70
27210;BME280;14721;42.668;23.386;2022-10-17T09:03:48;96798.81;;;16.17;46.93
27210;BME280;14721;42.668;23.386;2022-10-17T09:06:24;96796.13;;;16.17;46.81
27210;BME280;14721;42.668;23.386;2022-10-17T09:14:52;96801.56;;;16.40;47.41
27210;BME280;14721;42.668;23.386;2022-10-17T09:22:37;96781.06;;;16.38;46.84
27210;BME280;14721;42.668;23.386;2022-10-17T09:25:10;96794.97;;;16.68;47.29
27210;BME280;14721;42.668;23.386;2022-10-17T09:28:02;96793.22;;;16.79;46.53
27210;BME280;14721;42.668;23.386;2022-10-17T09:30:36;96798.84;;;16.76;46.25
27210;BME280;14721;42.668;23.386;2022-10-17T09:33:19;96792.38;;;16.55;45.65
27210;BME280;14721;42.668;23.386;2022-10-17T09:35:47;96790.81;;;16.64;45.20
27210;BME280;14721;42.668;23.386;2022-10-17T09:38:18;96789.56;;;16.57;45.30
27210;BME280;14721;42.668;23.386;2022-10-17T09:40:50;96786.06;;;16.31;43.77
27210;BME280;14721;42.668;23.386;2022-10-17T09:43:17;96784.97;;;16.34;44.33
27210;BME280;14721;42.668;23.386;2022-10-17T09:46:00;96767.44;;;16.39;43.79
27210;BME280;14721;42.668;23.386;2022-10-17T09:48:44;96778.13;;;16.53;43.89
27210;BME280;14721;42.668;23.386;2022-10-17T09:51:11;96762.91;;;16.52;43.60
27210;BME280;14721;42.668;23.386;2022-10-17T09:53:40;96754.97;;;16.62;43.17
27210;BME280;14721;42.668;23.386;2022-10-17T09:56:11;96764.13;;;16.72;42.79
27210;BME280;14721;42.668;23.386;2022-10-17T09:58:46;96776.00;;;17.04;41.21
27210;BME280;14721;42.668;23.386;2022-10-17T10:01:27;96768.53;;;17.08;37.11
27210;BME280;14721;42.668;23.386;2022-10-17T10:04:13;96774.06;;;17.06;36.00
27210;BME280;14721;42.668;23.386;2022-10-17T10:06:40;96774.16;;;17.05;35.67
27210;BME280;14721;42.668;23.386;2022-10-17T10:09:23;96737.66;;;16.88;36.34
27210;BME280;14721;42.668;23.386;2022-10-17T10:11:54;96745.41;;;16.92;37.00
27210;BME280;14721;42.668;23.386;2022-10-17T10:14:35;96733.13;;;16.88;37.50
27210;BME280;14721;42.668;23.386;2022-10-17T10:17:23;96771.63;;;17.14;37.47
27210;BME280;14721;42.668;23.386;2022-10-17T10:19:51;96757.88;;;17.28;37.17
27210;BME280;14721;42.668;23.386;2022-10-17T10:22:18;96758.16;;;17.36;37.07
27210;BME280;14721;42.668;23.386;2022-10-17T10:24:44;96736.72;;;17.46;36.77
27210;BME280;14721;42.668;23.386;2022-10-17T10:27:15;96727.00;;;17.43;36.43
27210;BME280;14721;42.668;23.386;2022-10-17T10:29:48;96748.78;;;17.64;36.72
27210;BME280;14721;42.668;23.386;2022-10-17T10:32:26;96739.81;;;17.63;36.74
27210;BME280;14721;42.668;23.386;2022-10-17T10:35:21;96734.50;;;17.62;36.69
27210;BME280;14721;42.668;23.386;2022-10-17T10:37:53;96740.44;;;17.67;35.58
27210;BME280;14721;42.668;23.386;2022-10-17T10:40:30;96736.97;;;17.65;35.38
27210;BME280;14721;42.668;23.386;2022-10-17T10:42:58;96731.44;;;17.66;35.26
27210;BME280;14721;42.668;23.386;2022-10-17T10:45:39;96729.72;;;17.76;35.51
27210;BME280;14721;42.668;23.386;2022-10-17T10:48:21;96728.59;;;17.90;34.97
27210;BME280;14721;42.668;23.386;2022-10-17T10:51:11;96715.81;;;17.92;34.90
27210;BME280;14721;42.668;23.386;2022-10-17T10:56:41;96708.84;;;17.89;34.16
27210;BME280;14721;42.668;23.386;2022-10-17T11:04:46;96710.53;;;17.90;34.01
27210;BME280;14721;42.668;23.386;2022-10-17T11:10:08;96708.28;;;18.06;33.98
27210;BME280;14721;42.668;23.386;2022-10-17T11:12:39;96702.13;;;18.15;33.59
27210;BME280;14721;42.668;23.386;2022-10-17T11:15:29;96706.53;;;18.16;33.72
27210;BME280;14721;42.668;23.386;2022-10-17T11:18:09;96695.69;;;18.27;33.78
27210;BME280;14721;42.668;23.386;2022-10-17T11:21:08;96703.19;;;18.24;33.82
27210;BME280;14721;42.668;23.386;2022-10-17T11:23:58;96697.47;;;18.17;34.05
27210;BME280;14721;42.668;23.386;2022-10-17T11:26:27;96673.25;;;18.16;33.68
27210;BME280;14721;42.668;23.386;2022-10-17T11:28:54;96671.13;;;18.19;33.51
27210;BME280;14721;42.668;23.386;2022-10-17T11:31:22;96685.84;;;18.37;33.41
27210;BME280;14721;42.668;23.386;2022-10-17T11:36:34;96681.81;;;18.43;32.95
27210;BME280;14721;42.668;23.386;2022-10-17T11:39:12;96678.69;;;18.36;32.86
27210;BME280;14721;42.668;23.386;2022-10-17T11:42:02;96681.53;;;18.35;32.83
27210;BME280;14721;42.668;23.386;2022-10-17T11:44:35;96677.47;;;18.40;32.83
27210;BME280;14721;42.668;23.386;2022-10-17T11:49:37;96675.22;;;18.56;32.74
27210;BME280;14721;42.668;23.386;2022-10-17T11:54:50;96662.25;;;18.60;32.50
27210;BME280;14721;42.668;23.386;2022-10-17T12:08:45;96660.25;;;18.73;31.59
27210;BME280;14721;42.668;23.386;2022-10-17T12:17:03;96657.03;;;18.79;32.40
27210;BME280;14721;42.668;23.386;2022-10-17T12:19:31;96657.41;;;18.75;32.68
27210;BME280;14721;42.668;23.386;2022-10-17T12:22:05;96657.41;;;18.75;31.98
27210;BME280;14721;42.668;23.386;2022-10-17T12:30:19;96656.81;;;18.92;31.14
27210;BME280;14721;42.668;23.386;2022-10-17T12:35:37;96643.00;;;18.95;30.46
27210;BME280;14721;42.668;23.386;2022-10-17T12:56:30;96633.13;;;19.14;30.00
27210;BME280;14721;42.668;23.386;2022-10-17T12:58:58;96638.53;;;19.05;29.60
27210;BME280;14721;42.668;23.386;2022-10-17T13:01:30;96637.72;;;19.14;29.45
27210;BME280;14721;42.668;23.386;2022-10-17T13:03:56;96633.34;;;19.22;29.66
27210;BME280;14721;42.668;23.386;2022-10-17T13:06:28;96627.59;;;19.16;29.88
27210;BME280;14721;42.668;23.386;2022-10-17T13:09:04;96644.03;;;19.24;29.37
27210;BME280;14721;42.668;23.386;2022-10-17T13:11:31;96620.06;;;19.19;29.18
27210;BME280;14721;42.668;23.386;2022-10-17T13:13:59;96638.84;;;19.32;29.15
27210;BME280;14721;42.668;23.386;2022-10-17T13:16:29;96634.00;;;19.35;28.92
27210;BME280;14721;42.668;23.386;2022-10-17T13:18:56;96628.97;;;19.31;28.23
27210;BME280;14721;42.668;23.386;2022-10-17T13:21:22;96631.28;;;19.35;27.53
27210;BME280;14721;42.668;23.386;2022-10-17T13:23:47;96633.59;;;19.40;27.07
27210;BME280;14721;42.668;23.386;2022-10-17T13:26:19;96631.63;;;19.42;26.93
27210;BME280;14721;42.668;23.386;2022-10-17T13:29:11;96639.94;;;19.50;26.67
27210;BME280;14721;42.668;23.386;2022-10-17T13:31:40;96633.91;;;19.46;26.41
27210;BME280;14721;42.668;23.386;2022-10-17T13:34:15;96622.59;;;19.32;26.67
27210;BME280;14721;42.668;23.386;2022-10-17T13:36:42;96625.59;;;19.38;26.71
27210;BME280;14721;42.668;23.386;2022-10-17T13:39:11;96625.16;;;19.33;26.49
27210;BME280;14721;42.668;23.386;2022-10-17T13:41:38;96633.56;;;19.30;26.77
27210;BME280;14721;42.668;23.386;2022-10-17T13:44:11;96612.59;;;19.32;26.94
27210;BME280;14721;42.668;23.386;2022-10-17T13:46:38;96634.38;;;19.51;26.98
27210;BME280;14721;42.668;23.386;2022-10-17T13:49:32;96619.75;;;19.43;26.98
27210;BME280;14721;42.668;23.386;2022-10-17T13:51:57;96620.78;;;19.42;27.26
27210;BME280;14721;42.668;23.386;2022-10-17T13:54:42;96635.94;;;19.54;28.85
27210;BME280;14721;42.668;23.386;2022-10-17T13:57:28;96631.81;;;19.50;30.20
27210;BME280;14721;42.668;23.386;2022-10-17T14:03:14;96632.16;;;19.36;30.09
27210;BME280;14721;42.668;23.386;2022-10-17T14:06:07;96627.88;;;19.33;30.46
27210;BME280;14721;42.668;23.386;2022-10-17T14:08:38;96638.84;;;19.32;32.54
27210;BME280;14721;42.668;23.386;2022-10-17T14:11:35;96618.81;;;19.03;33.85
27210;BME280;14721;42.668;23.386;2022-10-17T14:14:03;96633.25;;;19.03;34.31
27210;BME280;14721;42.668;23.386;2022-10-17T14:16:36;96645.13;;;19.12;34.58
27210;BME280;14721;42.668;23.386;2022-10-17T14:19:04;96645.38;;;19.09;34.87
27210;BME280;14721;42.668;23.386;2022-10-17T14:21:30;96649.63;;;19.02;34.82
27210;BME280;14721;42.668;23.386;2022-10-17T14:24:36;96647.75;;;19.02;34.79
27210;BME280;14721;42.668;23.386;2022-10-17T14:27:00;96633.81;;;18.86;35.26
27210;BME280;14721;42.668;23.386;2022-10-17T14:29:49;96646.19;;;18.79;35.94
27210;BME280;14721;42.668;23.386;2022-10-17T14:32:16;96633.75;;;18.77;36.29
27210;BME280;14721;42.668;23.386;2022-10-17T14:34:42;96582.63;;;18.42;36.70
27210;BME280;14721;42.668;23.386;2022-10-17T14:37:35;96625.72;;;18.65;37.01
27210;BME280;14721;42.668;23.386;2022-10-17T14:40:00;96634.75;;;18.55;37.51
27210;BME280;14721;42.668;23.386;2022-10-17T14:42:27;96624.97;;;18.32;38.13
27210;BME280;14721;42.668;23.386;2022-10-17T14:44:53;96647.22;;;18.35;38.35
27210;BME280;14721;42.668;23.386;2022-10-17T14:47:26;96651.53;;;18.27;38.68
27210;BME280;14721;42.668;23.386;2022-10-17T14:50:23;96649.84;;;18.15;38.64
27210;BME280;14721;42.668;23.386;2022-10-17T14:53:16;96647.78;;;18.07;38.95
27210;BME280;14721;42.668;23.386;2022-10-17T14:55:56;96662.34;;;17.95;39.14
27210;BME280;14721;42.668;23.386;2022-10-17T14:58:27;96653.13;;;17.87;39.07
27210;BME280;14721;42.668;23.386;2022-10-17T15:00:53;96645.91;;;17.76;39.45
27210;BME280;14721;42.668;23.386;2022-10-17T15:03:18;96664.56;;;17.90;39.48
27210;BME280;14721;42.668;23.386;2022-10-17T15:05:48;96671.94;;;17.88;39.48